sensor_id;sensor_type;location;lat;lon;timestamp;temperature;humidity
3900;DHT22;1965;47.668;9.180;2022-07-10T00:01:06;19.10;99.90
3900;DHT22;1965;47.668;9.180;2022-07-10T00:03:32;19.10;99.90
3900;DHT22;1965;47.668;9.180;2022-07-10T00:05:57;19.00;99.90
3900;DHT22;1965;47.668;9.180;2022-07-10T00:08:23;19.00;99.90
3900;DHT22;1965;47.668;9.180;2022-07-10T00:10:48;19.00;99.90
3900;DHT22;1965;47.668;9.180;2022-07-10T00:13:14;19.10;99.90
3900;DHT22;1965;47.668;9.180;2022-07-10T00:15:39;19.20;99.90
3900;DHT22;1965;47.668;9.180;2022-07-10T00:18:05;19.30;99.90
3900;DHT22;1965;47.668;9.180;2022-07-10T00:20:31;19.40;99.90
3900;DHT22;1965;47.668;9.180;2022-07-10T00:22:56;19.50;99.90
3900;DHT22;1965;47.668;9.180;2022-07-10T00:25:22;19.40;99.90
3900;DHT22;1965;47.668;9.180;2022-07-10T00:27:47;19.40;99.90
3900;DHT22;1965;47.668;9.180;2022-07-10T00:30:13;19.20;99.90
3900;DHT22;1965;47.668;9.180;2022-07-10T00:32:39;19.10;99.90
3900;DHT22;1965;47.668;9.180;2022-07-10T00:35:05;19.00;99.90
3900;DHT22;1965;47.668;9.180;2022-07-10T00:37:31;18.70;99.90
3900;DHT22;1965;47.668;9.180;2022-07-10T00:39:56;18.90;99.90
3900;DHT22;1965;47.668;9.180;2022-07-10T00:42:22;19.10;99.90
3900;DHT22;1965;47.668;9.180;2022-07-10T00:44:48;18.90;99.90
3900;DHT22;1965;47.668;9.180;2022-07-10T00:47:13;19.00;99.90
3900;DHT22;1965;47.668;9.180;2022-07-10T00:49:42;18.90;99.90
3900;DHT22;1965;47.668;9.180;2022-07-10T00:52:10;18.80;99.90
3900;DHT22;1965;47.668;9.180;2022-07-10T00:54:36;18.80;99.90
3900;DHT22;1965;47.668;9.180;2022-07-10T00:57:03;18.80;99.90
3900;DHT22;1965;47.668;9.180;2022-07-10T00:59:29;18.90;99.90
3900;DHT22;1965;47.668;9.180;2022-07-10T01:01:55;18.80;99.90
3900;DHT22;1965;47.668;9.180;2022-07-10T01:04:20;18.90;99.90
3900;DHT22;1965;47.668;9.180;2022-07-10T01:06:47;18.80;99.90
3900;DHT22;1965;47.668;9.180;2022-07-10T01:09:12;18.90;99.90
3900;DHT22;1965;47.668;9.180;2022-07-10T01:11:38;18.80;99.90
3900;DHT22;1965;47.668;9.180;2022-07-10T01:14:04;18.70;99.90
3900;DHT22;1965;47.668;9.180;2022-07-10T01:16:30;18.60;99.90
3900;DHT22;1965;47.668;9.180;2022-07-10T01:18:55;18.60;99.90
3900;DHT22;1965;47.668;9.180;2022-07-10T01:21:28;18.50;99.90
3900;DHT22;1965;47.668;9.180;2022-07-10T01:23:54;18.40;99.90
3900;DHT22;1965;47.668;9.180;2022-07-10T01:26:20;18.50;99.90
3900;DHT22;1965;47.668;9.180;2022-07-10T01:28:50;18.60;99.90
3900;DHT22;1965;47.668;9.180;2022-07-10T01:31:25;18.60;99.90
3900;DHT22;1965;47.668;9.180;2022-07-10T01:33:52;18.60;99.90
3900;DHT22;1965;47.668;9.180;2022-07-10T01:36:17;18.40;99.90
3900;DHT22;1965;47.668;9.180;2022-07-10T01:38:43;18.50;99.90
3900;DHT22;1965;47.668;9.180;2022-07-10T01:41:09;18.60;99.90
3900;DHT22;1965;47.668;9.180;2022-07-10T01:43:37;18.50;99.90
3900;DHT22;1965;47.668;9.180;2022-07-10T01:46:07;18.60;99.90
3900;DHT22;1965;47.668;9.180;2022-07-10T01:48:33;18.70;99.90
3900;DHT22;1965;47.668;9.180;2022-07-10T01:50:58;18.60;99.90
3900;DHT22;1965;47.668;9.180;2022-07-10T01:53:24;18.70;99.90
3900;DHT22;1965;47.668;9.180;2022-07-10T01:55:49;18.50;99.90
3900;DHT22;1965;47.668;9.180;2022-07-10T01:58:15;18.70;99.90
3900;DHT22;1965;47.668;9.180;2022-07-10T02:00:40;18.60;99.90
3900;DHT22;1965;47.668;9.180;2022-07-10T02:03:06;18.60;99.90
3900;DHT22;1965;47.668;9.180;2022-07-10T02:05:50;18.60;99.90
3900;DHT22;1965;47.668;9.180;2022-07-10T02:08:15;18.60;99.90
3900;DHT22;1965;47.668;9.180;2022-07-10T02:10:41;18.70;99.90
3900;DHT22;1965;47.668;9.180;2022-07-10T02:13:07;18.80;99.90
3900;DHT22;1965;47.668;9.180;2022-07-10T02:15:32;18.70;99.90
3900;DHT22;1965;47.668;9.180;2022-07-10T02:17:58;18.70;99.90
3900;DHT22;1965;47.668;9.180;2022-07-10T02:20:23;18.50;99.90
3900;DHT22;1965;47.668;9.180;2022-07-10T02:22:49;18.60;99.90
3900;DHT22;1965;47.668;9.180;2022-07-10T02:25:14;18.50;99.90
3900;DHT22;1965;47.668;9.180;2022-07-10T02:27:40;18.60;99.90
3900;DHT22;1965;47.668;9.180;2022-07-10T02:30:06;18.60;99.90
3900;DHT22;1965;47.668;9.180;2022-07-10T02:32:31;18.40;99.90
3900;DHT22;1965;47.668;9.180;2022-07-10T02:34:57;18.40;99.90
3900;DHT22;1965;47.668;9.180;2022-07-10T02:37:22;18.30;99.90
3900;DHT22;1965;47.668;9.180;2022-07-10T02:39:48;18.40;99.90
3900;DHT22;1965;47.668;9.180;2022-07-10T02:42:13;18.40;99.90
3900;DHT22;1965;47.668;9.180;2022-07-10T02:44:39;18.40;99.90
3900;DHT22;1965;47.668;9.180;2022-07-10T02:47:04;18.40;99.90
3900;DHT22;1965;47.668;9.180;2022-07-10T02:49:30;18.50;99.90
3900;DHT22;1965;47.668;9.180;2022-07-10T02:51:55;18.60;99.90
3900;DHT22;1965;47.668;9.180;2022-07-10T02:54:21;18.60;99.90
3900;DHT22;1965;47.668;9.180;2022-07-10T02:56:46;18.50;99.90
3900;DHT22;1965;47.668;9.180;2022-07-10T02:59:12;18.20;99.90
3900;DHT22;1965;47.668;9.180;2022-07-10T03:01:37;18.00;99.90
3900;DHT22;1965;47.668;9.180;2022-07-10T03:04:03;18.10;99.90
3900;DHT22;1965;47.668;9.180;2022-07-10T03:06:28;18.00;99.90
3900;DHT22;1965;47.668;9.180;2022-07-10T03:08:54;18.00;99.90
3900;DHT22;1965;47.668;9.180;2022-07-10T03:11:20;17.90;99.90
3900;DHT22;1965;47.668;9.180;2022-07-10T03:13:45;18.10;99.90
3900;DHT22;1965;47.668;9.180;2022-07-10T03:16:11;18.10;99.90
3900;DHT22;1965;47.668;9.180;2022-07-10T03:18:36;18.10;99.90
3900;DHT22;1965;47.668;9.180;2022-07-10T03:21:02;18.30;99.90
3900;DHT22;1965;47.668;9.180;2022-07-10T03:23:28;18.30;99.90
3900;DHT22;1965;47.668;9.180;2022-07-10T03:25:53;18.30;99.90
3900;DHT22;1965;47.668;9.180;2022-07-10T03:28:19;18.10;99.90
3900;DHT22;1965;47.668;9.180;2022-07-10T03:30:44;18.20;99.90
3900;DHT22;1965;47.668;9.180;2022-07-10T03:33:10;18.20;99.90
3900;DHT22;1965;47.668;9.180;2022-07-10T03:35:35;18.30;99.90
3900;DHT22;1965;47.668;9.180;2022-07-10T03:38:01;18.20;99.90
3900;DHT22;1965;47.668;9.180;2022-07-10T03:40:27;18.30;99.90
3900;DHT22;1965;47.668;9.180;2022-07-10T03:42:53;18.30;99.90
3900;DHT22;1965;47.668;9.180;2022-07-10T03:45:18;18.10;99.90
3900;DHT22;1965;47.668;9.180;2022-07-10T03:47:44;18.20;99.90
3900;DHT22;1965;47.668;9.180;2022-07-10T03:50:09;18.30;99.90
3900;DHT22;1965;47.668;9.180;2022-07-10T03:52:35;18.30;99.90
3900;DHT22;1965;47.668;9.180;2022-07-10T03:55:00;18.50;99.90
3900;DHT22;1965;47.668;9.180;2022-07-10T03:57:26;18.40;99.90
3900;DHT22;1965;47.668;9.180;2022-07-10T04:00:10;18.40;99.90
3900;DHT22;1965;47.668;9.180;2022-07-10T04:02:36;18.30;99.90
3900;DHT22;1965;47.668;9.180;2022-07-10T04:05:04;18.40;99.90
3900;DHT22;1965;47.668;9.180;2022-07-10T04:07:30;18.20;99.90
3900;DHT22;1965;47.668;9.180;2022-07-10T04:09:56;18.20;99.90
3900;DHT22;1965;47.668;9.180;2022-07-10T04:12:21;18.20;99.90
3900;DHT22;1965;47.668;9.180;2022-07-10T04:14:47;18.30;99.90
3900;DHT22;1965;47.668;9.180;2022-07-10T04:17:17;18.30;99.90
3900;DHT22;1965;47.668;9.180;2022-07-10T04:19:42;18.30;99.90
3900;DHT22;1965;47.668;9.180;2022-07-10T04:22:08;18.40;99.90
3900;DHT22;1965;47.668;9.180;2022-07-10T04:24:33;18.40;99.90
3900;DHT22;1965;47.668;9.180;2022-07-10T04:26:59;18.50;99.90
3900;DHT22;1965;47.668;9.180;2022-07-10T04:29:24;18.30;99.90
3900;DHT22;1965;47.668;9.180;2022-07-10T04:31:50;18.40;99.90
3900;DHT22;1965;47.668;9.180;2022-07-10T04:34:15;18.30;99.90
3900;DHT22;1965;47.668;9.180;2022-07-10T04:36:41;18.20;99.90
3900;DHT22;1965;47.668;9.180;2022-07-10T04:39:06;18.30;99.90
3900;DHT22;1965;47.668;9.180;2022-07-10T04:41:32;18.30;99.90
3900;DHT22;1965;47.668;9.180;2022-07-10T04:43:58;18.40;99.90
3900;DHT22;1965;47.668;9.180;2022-07-10T04:46:23;18.20;99.90
3900;DHT22;1965;47.668;9.180;2022-07-10T04:48:49;18.20;99.90
3900;DHT22;1965;47.668;9.180;2022-07-10T04:51:15;18.00;99.90
3900;DHT22;1965;47.668;9.180;2022-07-10T04:53:41;18.20;99.90
3900;DHT22;1965;47.668;9.180;2022-07-10T04:56:07;18.30;99.90
3900;DHT22;1965;47.668;9.180;2022-07-10T04:58:32;18.10;99.90
3900;DHT22;1965;47.668;9.180;2022-07-10T05:00:58;18.20;99.90
3900;DHT22;1965;47.668;9.180;2022-07-10T05:03:23;18.20;99.90
3900;DHT22;1965;47.668;9.180;2022-07-10T05:05:49;18.20;99.90
3900;DHT22;1965;47.668;9.180;2022-07-10T05:08:15;18.20;99.90
3900;DHT22;1965;47.668;9.180;2022-07-10T05:10:40;18.30;99.90
3900;DHT22;1965;47.668;9.180;2022-07-10T05:13:06;18.20;99.90
3900;DHT22;1965;47.668;9.180;2022-07-10T05:15:31;18.10;99.90
3900;DHT22;1965;47.668;9.180;2022-07-10T05:17:57;18.10;99.90
3900;DHT22;1965;47.668;9.180;2022-07-10T05:20:23;18.30;99.90
3900;DHT22;1965;47.668;9.180;2022-07-10T05:22:48;18.20;99.90
3900;DHT22;1965;47.668;9.180;2022-07-10T05:25:14;18.10;99.90
3900;DHT22;1965;47.668;9.180;2022-07-10T07:47:03;19.50;99.90
3900;DHT22;1965;47.668;9.180;2022-07-10T07:49:29;19.80;99.90
3900;DHT22;1965;47.668;9.180;2022-07-10T07:51:54;19.50;99.90
3900;DHT22;1965;47.668;9.180;2022-07-10T07:54:20;20.00;99.90
3900;DHT22;1965;47.668;9.180;2022-07-10T07:56:45;19.90;99.90
3900;DHT22;1965;47.668;9.180;2022-07-10T07:59:11;20.20;99.90
3900;DHT22;1965;47.668;9.180;2022-07-10T08:01:38;20.60;99.90
3900;DHT22;1965;47.668;9.180;2022-07-10T08:04:03;20.90;99.90
3900;DHT22;1965;47.668;9.180;2022-07-10T08:06:29;21.10;99.90
3900;DHT22;1965;47.668;9.180;2022-07-10T08:08:54;21.10;99.90
3900;DHT22;1965;47.668;9.180;2022-07-10T08:11:20;20.80;99.90
3900;DHT22;1965;47.668;9.180;2022-07-10T08:13:45;20.90;99.90
3900;DHT22;1965;47.668;9.180;2022-07-10T08:16:11;21.10;99.90
3900;DHT22;1965;47.668;9.180;2022-07-10T08:18:36;21.10;99.90
3900;DHT22;1965;47.668;9.180;2022-07-10T08:21:02;21.20;99.90
3900;DHT22;1965;47.668;9.180;2022-07-10T08:23:28;21.30;99.90
3900;DHT22;1965;47.668;9.180;2022-07-10T08:25:53;21.50;99.90
3900;DHT22;1965;47.668;9.180;2022-07-10T08:28:19;21.90;99.90
3900;DHT22;1965;47.668;9.180;2022-07-10T08:30:44;21.90;99.90
3900;DHT22;1965;47.668;9.180;2022-07-10T08:33:11;22.20;99.90
3900;DHT22;1965;47.668;9.180;2022-07-10T08:35:37;21.90;99.90
3900;DHT22;1965;47.668;9.180;2022-07-10T08:38:02;21.90;99.90
3900;DHT22;1965;47.668;9.180;2022-07-10T08:40:33;22.30;99.90
3900;DHT22;1965;47.668;9.180;2022-07-10T08:42:59;22.50;99.90
3900;DHT22;1965;47.668;9.180;2022-07-10T08:45:24;22.70;99.90
3900;DHT22;1965;47.668;9.180;2022-07-10T08:47:50;22.70;99.90
3900;DHT22;1965;47.668;9.180;2022-07-10T08:50:23;22.80;99.90
3900;DHT22;1965;47.668;9.180;2022-07-10T08:52:54;22.50;99.90
3900;DHT22;1965;47.668;9.180;2022-07-10T08:55:24;22.30;99.90
3900;DHT22;1965;47.668;9.180;2022-07-10T08:57:50;22.40;99.90
3900;DHT22;1965;47.668;9.180;2022-07-10T09:00:16;22.40;99.90
3900;DHT22;1965;47.668;9.180;2022-07-10T09:02:42;22.50;99.90
3900;DHT22;1965;47.668;9.180;2022-07-10T09:05:07;22.60;99.90
3900;DHT22;1965;47.668;9.180;2022-07-10T09:07:34;22.70;99.90
3900;DHT22;1965;47.668;9.180;2022-07-10T09:10:04;22.70;99.90
3900;DHT22;1965;47.668;9.180;2022-07-10T09:12:30;22.70;99.90
3900;DHT22;1965;47.668;9.180;2022-07-10T09:15:16;22.80;99.90
3900;DHT22;1965;47.668;9.180;2022-07-10T21:15:43;18.90;99.90
3900;DHT22;1965;47.668;9.180;2022-07-10T21:18:09;19.00;99.90
3900;DHT22;1965;47.668;9.180;2022-07-10T21:20:35;19.00;99.90
3900;DHT22;1965;47.668;9.180;2022-07-10T21:23:01;18.90;99.90
3900;DHT22;1965;47.668;9.180;2022-07-10T21:25:27;18.80;99.90
3900;DHT22;1965;47.668;9.180;2022-07-10T21:27:53;18.70;99.90
3900;DHT22;1965;47.668;9.180;2022-07-10T21:30:19;18.60;99.90
3900;DHT22;1965;47.668;9.180;2022-07-10T21:32:45;18.50;99.90
3900;DHT22;1965;47.668;9.180;2022-07-10T21:35:12;18.50;99.90
3900;DHT22;1965;47.668;9.180;2022-07-10T21:37:37;18.50;99.90
3900;DHT22;1965;47.668;9.180;2022-07-10T21:40:03;18.50;99.90
3900;DHT22;1965;47.668;9.180;2022-07-10T21:42:28;18.40;99.90
3900;DHT22;1965;47.668;9.180;2022-07-10T21:44:54;18.40;99.90
3900;DHT22;1965;47.668;9.180;2022-07-10T23:59:20;16.00;99.90
